createdAt,value
2023-04-03T00:00:55.354Z,1.80
2023-04-03T00:03:23.373Z,1.80
2023-04-03T00:05:53.038Z,1.80
2023-04-03T00:08:21.762Z,1.80
2023-04-03T00:10:50.192Z,1.80
2023-04-03T00:13:18.408Z,1.80
2023-04-03T00:15:46.760Z,1.80
2023-04-03T00:18:14.928Z,1.80
2023-04-03T00:20:43.100Z,1.80
2023-04-03T00:23:12.812Z,1.80
2023-04-03T00:25:40.879Z,1.80
2023-04-03T00:28:09.138Z,1.80
2023-04-03T00:30:37.375Z,1.80
2023-04-03T00:33:05.656Z,1.80
2023-04-03T00:35:34.406Z,1.70
2023-04-03T00:38:02.551Z,1.70
2023-04-03T00:40:43.260Z,1.60
2023-04-03T00:43:16.002Z,1.60
2023-04-03T00:45:46.042Z,1.50
2023-04-03T00:48:17.997Z,1.40
2023-04-03T00:50:47.295Z,1.30
2023-04-03T00:53:20.614Z,1.30
2023-04-03T00:55:51.663Z,1.20
2023-04-03T00:58:22.558Z,1.10
2023-04-03T01:01:13.062Z,1.00
2023-04-03T01:03:41.707Z,1.00
2023-04-03T01:06:10.031Z,0.90
2023-04-03T01:08:38.153Z,0.90
2023-04-03T01:11:07.656Z,0.80
2023-04-03T01:13:36.534Z,0.80
2023-04-03T01:16:05.774Z,0.80
2023-04-03T01:18:36.596Z,0.90
2023-04-03T01:21:32.069Z,0.80
2023-04-03T01:24:17.207Z,0.90
2023-04-03T01:26:47.180Z,0.80
2023-04-03T01:29:15.298Z,0.80
2023-04-03T01:31:51.081Z,0.70
2023-04-03T01:34:19.225Z,0.70
2023-04-03T01:36:47.500Z,0.60
2023-04-03T01:39:16.077Z,0.50
2023-04-03T01:41:44.196Z,0.50
2023-04-03T01:44:13.124Z,0.50
2023-04-03T01:46:42.539Z,0.50
2023-04-03T01:49:12.683Z,0.50
2023-04-03T01:51:41.093Z,0.50
2023-04-03T01:54:09.313Z,0.40
2023-04-03T01:56:37.568Z,0.40
2023-04-03T01:59:06.064Z,0.30
2023-04-03T02:01:34.318Z,0.30
2023-04-03T02:04:02.473Z,0.30
2023-04-03T02:06:32.075Z,0.20
2023-04-03T02:09:00.173Z,0.20
2023-04-03T02:11:28.228Z,0.20
2023-04-03T02:13:56.319Z,0.20
2023-04-03T02:16:24.501Z,0.20
2023-04-03T02:18:52.563Z,0.20
2023-04-03T02:21:20.554Z,0.20
2023-04-03T02:23:50.199Z,0.10
2023-04-03T02:26:19.224Z,0.10
2023-04-03T02:28:47.546Z,0.00
2023-04-03T02:31:15.976Z,0.00
2023-04-03T02:33:43.976Z,-0.10
2023-04-03T02:36:12.212Z,-0.10
2023-04-03T02:38:40.781Z,-0.10
2023-04-03T02:41:12.006Z,-0.10
2023-04-03T02:43:40.959Z,-0.20
2023-04-03T02:46:09.418Z,-0.20
2023-04-03T02:48:37.987Z,-0.20
2023-04-03T02:51:06.632Z,-0.20
2023-04-03T02:53:34.729Z,-0.20
2023-04-03T02:56:02.805Z,-0.30
2023-04-03T02:58:32.291Z,-0.30
2023-04-03T03:01:00.391Z,-0.30
2023-04-03T03:03:28.446Z,-0.30
2023-04-03T03:06:04.994Z,-0.40
2023-04-03T03:08:33.668Z,-0.40
2023-04-03T03:11:02.053Z,-0.50
2023-04-03T03:13:31.819Z,-0.50
2023-04-03T03:16:00.533Z,-0.50
2023-04-03T03:18:29.368Z,-0.60
2023-04-03T03:20:59.965Z,-0.60
2023-04-03T03:23:29.439Z,-0.60
2023-04-03T03:25:58.859Z,-0.60
2023-04-03T03:28:27.355Z,-0.60
2023-04-03T03:30:56.895Z,-0.60
2023-04-03T03:33:26.139Z,-0.70
2023-04-03T03:35:54.534Z,-0.70
2023-04-03T03:38:23.279Z,-0.70
2023-04-03T03:40:52.372Z,-0.70
2023-04-03T03:43:21.154Z,-0.80
2023-04-03T03:45:52.544Z,-0.80
2023-04-03T03:48:22.675Z,-0.80
2023-04-03T03:50:51.866Z,-0.80
2023-04-03T03:53:20.231Z,-0.80
2023-04-03T03:55:48.359Z,-0.80
2023-04-03T03:58:16.517Z,-0.80
2023-04-03T04:00:44.671Z,-0.80
2023-04-03T04:03:12.861Z,-0.80
2023-04-03T04:05:42.414Z,-0.80
2023-04-03T04:08:11.001Z,-0.90
2023-04-03T04:10:40.689Z,-0.90
2023-04-03T04:13:08.821Z,-0.90
2023-04-03T04:15:37.416Z,-1.00
2023-04-03T04:18:05.841Z,-1.00
2023-04-03T04:20:34.244Z,-1.00
2023-04-03T04:23:03.724Z,-1.00
2023-04-03T04:25:31.853Z,-1.10
2023-04-03T04:28:00.185Z,-1.10
2023-04-03T04:30:28.761Z,-1.20
2023-04-03T04:32:57.122Z,-1.20
2023-04-03T04:35:25.655Z,-1.20
2023-04-03T04:37:53.637Z,-1.30
2023-04-03T04:40:24.985Z,-1.30
2023-04-03T04:42:53.320Z,-1.20
2023-04-03T04:45:21.372Z,-1.20
2023-04-03T04:47:51.172Z,-1.20
2023-04-03T04:50:19.486Z,-1.20
2023-04-03T04:52:47.645Z,-1.20
2023-04-03T04:55:15.741Z,-1.10
2023-04-03T04:57:45.221Z,-1.10
2023-04-03T05:00:14.664Z,-1.10
2023-04-03T05:02:43.053Z,-1.20
2023-04-03T05:05:11.569Z,-1.10
2023-04-03T05:07:39.665Z,-1.30
2023-04-03T05:10:09.530Z,-1.30
2023-04-03T05:12:37.616Z,-1.30
2023-04-03T05:15:08.591Z,-1.30
2023-04-03T05:17:37.115Z,-1.30
2023-04-03T05:20:06.022Z,-1.30
2023-04-03T05:22:34.072Z,-1.30
2023-04-03T05:25:02.267Z,-1.30
2023-04-03T05:27:30.249Z,-1.30
2023-04-03T05:29:58.669Z,-1.30
2023-04-03T05:32:28.974Z,-1.30
2023-04-03T05:34:57.980Z,-1.30
2023-04-03T05:37:27.390Z,-1.30
2023-04-03T05:39:55.503Z,-1.30
2023-04-03T05:42:23.560Z,-1.20
2023-04-03T05:44:51.665Z,-1.20
2023-04-03T05:47:20.352Z,-1.20
2023-04-03T05:49:49.778Z,-1.20
2023-04-03T05:52:24.861Z,-1.20
2023-04-03T05:54:52.958Z,-1.10
2023-04-03T05:57:21.741Z,-1.10
2023-04-03T05:59:50.405Z,-1.00
2023-04-03T06:02:23.945Z,-0.90
2023-04-03T06:04:53.859Z,-0.90
2023-04-03T06:07:23.739Z,-0.80
2023-04-03T06:09:52.837Z,-0.80
2023-04-03T06:12:21.868Z,-0.70
2023-04-03T06:14:50.017Z,-0.60
2023-04-03T06:17:19.017Z,-0.40
2023-04-03T06:19:47.613Z,-0.40
2023-04-03T06:22:17.727Z,-0.30
2023-04-03T06:24:45.701Z,-0.20
2023-04-03T06:27:14.235Z,-0.10
2023-04-03T06:29:42.167Z,0.00
2023-04-03T06:32:10.181Z,0.10
2023-04-03T06:34:38.285Z,0.20
2023-04-03T06:37:06.330Z,0.30
2023-04-03T06:39:36.237Z,0.50
2023-04-03T06:42:04.652Z,0.60
2023-04-03T06:44:35.059Z,0.80
2023-04-03T06:47:03.446Z,0.90
2023-04-03T06:49:31.917Z,1.10
2023-04-03T06:52:02.134Z,1.30
2023-04-03T06:54:30.574Z,1.40
2023-04-03T06:57:00.316Z,1.60
2023-04-03T06:59:28.774Z,1.80
2023-04-03T07:01:56.889Z,1.90
2023-04-03T07:04:25.741Z,2.00
2023-04-03T07:06:54.385Z,2.10
2023-04-03T07:09:22.604Z,2.10
2023-04-03T07:11:51.048Z,2.30
2023-04-03T07:14:20.501Z,2.30
2023-04-03T07:16:48.530Z,2.40
2023-04-03T07:19:16.646Z,2.50
2023-04-03T07:21:44.722Z,2.60
2023-04-03T07:24:15.929Z,2.70
2023-04-03T07:26:46.219Z,2.80
2023-04-03T07:29:15.259Z,2.80
2023-04-03T07:31:45.947Z,2.90
2023-04-03T07:34:17.461Z,3.00
2023-04-03T07:36:45.556Z,3.20
2023-04-03T07:39:13.621Z,3.20
2023-04-03T07:41:42.034Z,3.40
2023-04-03T07:44:10.855Z,3.50
2023-04-03T07:46:39.077Z,3.70
2023-04-03T07:49:08.630Z,3.80
2023-04-03T07:51:36.936Z,4.00
2023-04-03T07:54:06.168Z,4.10
2023-04-03T07:56:34.565Z,4.30
2023-04-03T07:59:02.844Z,4.50
2023-04-03T08:01:35.707Z,4.60
2023-04-03T08:04:04.276Z,4.80
2023-04-03T08:06:45.877Z,4.90
2023-04-03T08:09:16.094Z,5.00
2023-04-03T08:11:44.307Z,5.20
2023-04-03T08:14:17.379Z,5.30
2023-04-03T08:16:46.662Z,5.40
2023-04-03T08:19:25.325Z,5.60
2023-04-03T08:21:57.765Z,5.70
2023-04-03T08:24:25.799Z,5.70
2023-04-03T08:26:53.736Z,5.80
2023-04-03T08:29:22.276Z,5.90
2023-04-03T08:31:51.501Z,6.00
2023-04-03T08:34:20.576Z,6.10
2023-04-03T08:36:49.285Z,6.20
2023-04-03T08:39:18.849Z,6.40
2023-04-03T08:41:48.689Z,6.50
2023-04-03T08:44:24.983Z,6.50
2023-04-03T08:47:05.724Z,6.60
2023-04-03T08:49:37.593Z,6.70
2023-04-03T08:52:12.076Z,6.70
2023-04-03T08:54:51.700Z,6.80
2023-04-03T08:57:24.221Z,6.90
2023-04-03T08:59:53.141Z,7.00
2023-04-03T09:02:29.695Z,7.10
2023-04-03T09:04:58.040Z,7.20
2023-04-03T09:07:38.444Z,7.30
2023-04-03T09:10:09.234Z,7.30
2023-04-03T09:12:42.230Z,7.40
2023-04-03T09:15:20.136Z,7.60
2023-04-03T09:18:01.006Z,7.70
2023-04-03T09:20:41.243Z,7.80
2023-04-03T09:23:19.129Z,7.90
2023-04-03T09:25:49.661Z,8.00
2023-04-03T09:28:17.638Z,8.10
2023-04-03T09:30:45.689Z,8.20
2023-04-03T09:33:14.588Z,8.40
2023-04-03T09:35:48.582Z,8.40
2023-04-03T09:38:21.295Z,8.50
2023-04-03T09:40:53.666Z,8.50
2023-04-03T09:43:29.687Z,8.50
2023-04-03T09:46:18.559Z,8.50
2023-04-03T09:49:05.189Z,8.50
2023-04-03T09:51:36.748Z,8.50
2023-04-03T09:54:42.771Z,8.60
2023-04-03T09:57:15.198Z,8.70
2023-04-03T09:59:47.633Z,8.80
2023-04-03T10:02:36.650Z,8.90
2023-04-03T10:05:10.017Z,8.90
2023-04-03T10:07:41.214Z,9.00
2023-04-03T10:10:24.942Z,9.00
2023-04-03T10:13:06.586Z,9.20
2023-04-03T10:15:41.559Z,9.30
2023-04-03T10:18:24.743Z,9.40
2023-04-03T10:20:54.669Z,9.50
2023-04-03T10:23:27.050Z,9.60
2023-04-03T10:26:13.227Z,9.70
2023-04-03T10:28:50.450Z,9.80
2023-04-03T10:31:24.775Z,10.00
2023-04-03T10:34:05.631Z,10.10
2023-04-03T10:36:42.274Z,10.10
2023-04-03T10:39:21.735Z,10.20
2023-04-03T10:42:16.036Z,10.30
2023-04-03T10:44:58.624Z,10.30
2023-04-03T10:47:36.542Z,10.30
2023-04-03T10:50:24.800Z,10.50
2023-04-03T10:53:00.014Z,10.70
2023-04-03T10:55:37.113Z,10.80
2023-04-03T10:58:08.749Z,10.70
2023-04-03T11:00:44.849Z,10.70
2023-04-03T11:03:19.049Z,10.60
2023-04-03T11:05:50.457Z,10.70
2023-04-03T11:08:28.429Z,10.70
2023-04-03T11:11:00.142Z,10.70
2023-04-03T11:13:35.149Z,10.90
2023-04-03T11:16:06.556Z,10.80
2023-04-03T11:18:40.211Z,10.80
2023-04-03T11:21:13.812Z,11.00
2023-04-03T11:23:49.591Z,11.10
2023-04-03T11:26:20.161Z,11.20
2023-04-03T11:28:48.502Z,11.40
2023-04-03T11:31:32.248Z,11.30
2023-04-03T11:34:14.707Z,11.30
2023-04-03T11:36:46.991Z,11.50
2023-04-03T11:39:24.629Z,11.60
2023-04-03T11:42:00.299Z,11.70
2023-04-03T11:44:38.728Z,11.80
2023-04-03T11:47:09.895Z,12.00
2023-04-03T11:50:00.690Z,12.10
2023-04-03T11:53:01.353Z,11.80
2023-04-03T11:56:27.925Z,11.60
2023-04-03T11:59:24.639Z,11.70
2023-04-03T12:01:56.697Z,11.50
2023-04-03T12:04:27.928Z,11.30
2023-04-03T12:07:18.323Z,11.60
2023-04-03T12:10:32.645Z,11.70
2023-04-03T12:13:20.498Z,12.00
2023-04-03T12:15:55.727Z,12.20
2023-04-03T12:19:03.605Z,12.40
2023-04-03T12:22:09.312Z,12.10
2023-04-03T12:24:40.278Z,12.20
2023-04-03T12:27:25.796Z,12.20
2023-04-03T12:30:04.155Z,12.30
2023-04-03T12:33:11.984Z,12.40
2023-04-03T12:35:50.565Z,12.30
2023-04-03T12:38:48.015Z,12.10
2023-04-03T12:41:34.855Z,12.10
2023-04-03T12:44:24.010Z,12.20
2023-04-03T12:46:55.688Z,11.90
2023-04-03T12:49:37.247Z,11.80
2023-04-03T12:52:08.370Z,11.80
2023-04-03T12:54:40.673Z,11.90
2023-04-03T12:57:14.005Z,11.80
2023-04-03T12:59:42.294Z,11.70
2023-04-03T13:02:22.383Z,11.70
2023-04-03T13:04:52.591Z,11.90
2023-04-03T13:07:28.361Z,12.00
2023-04-03T13:10:02.723Z,12.10
2023-04-03T13:12:32.334Z,12.10
2023-04-03T13:15:05.225Z,12.20
2023-04-03T13:17:35.119Z,12.30
2023-04-03T13:20:16.228Z,12.30
2023-04-03T13:22:52.039Z,12.40
2023-04-03T13:25:23.494Z,12.30
2023-04-03T13:28:00.445Z,12.30
2023-04-03T13:30:40.536Z,12.10
2023-04-03T13:33:22.936Z,12.20
2023-04-03T13:35:57.928Z,12.30
2023-04-03T13:38:32.280Z,12.40
2023-04-03T13:41:03.592Z,12.40
2023-04-03T13:43:33.570Z,12.40
2023-04-03T13:46:22.362Z,12.40
2023-04-03T13:48:53.121Z,12.40
2023-04-03T13:51:30.743Z,12.40
2023-04-03T13:54:00.962Z,12.20
2023-04-03T13:56:33.550Z,12.40
2023-04-03T13:59:23.110Z,12.50
2023-04-03T14:01:54.918Z,12.70
2023-04-03T14:04:26.613Z,12.90
2023-04-03T14:06:56.812Z,12.70
2023-04-03T14:09:27.332Z,12.50
2023-04-03T14:11:59.432Z,12.20
2023-04-03T14:14:32.662Z,12.00
2023-04-03T14:17:03.866Z,12.00
2023-04-03T14:19:33.939Z,12.20
2023-04-03T14:22:13.989Z,12.30
2023-04-03T14:24:42.059Z,12.40
2023-04-03T14:27:18.410Z,12.40
2023-04-03T14:29:46.881Z,12.40
2023-04-03T14:32:15.973Z,12.30
2023-04-03T14:34:45.264Z,12.40
2023-04-03T14:37:17.897Z,12.30
2023-04-03T14:39:46.432Z,12.30
2023-04-03T14:42:17.076Z,12.40
2023-04-03T14:44:45.440Z,12.50
2023-04-03T14:47:29.663Z,12.60
2023-04-03T14:49:59.895Z,12.50
2023-04-03T14:52:31.898Z,12.30
2023-04-03T14:55:01.367Z,12.20
2023-04-03T14:57:31.398Z,12.20
2023-04-03T14:59:59.948Z,12.20
2023-04-03T15:02:31.186Z,12.40
2023-04-03T15:05:00.545Z,12.50
2023-04-03T15:07:32.720Z,12.50
2023-04-03T15:10:21.278Z,12.50
2023-04-03T15:12:50.007Z,12.20
2023-04-03T15:15:20.840Z,11.80
2023-04-03T15:17:54.849Z,11.60
2023-04-03T15:20:25.435Z,11.40
2023-04-03T15:22:57.302Z,11.50
2023-04-03T15:25:26.432Z,11.50
2023-04-03T15:27:56.061Z,11.50
2023-04-03T15:30:24.170Z,11.50
2023-04-03T15:32:54.146Z,11.30
2023-04-03T15:35:22.485Z,11.40
2023-04-03T15:37:50.638Z,11.50
2023-04-03T15:40:20.260Z,11.50
2023-04-03T15:42:48.369Z,11.50
2023-04-03T15:45:16.934Z,11.30
2023-04-03T15:47:45.381Z,11.20
2023-04-03T15:50:13.402Z,11.00
2023-04-03T15:52:41.436Z,10.80
2023-04-03T15:55:10.005Z,10.70
2023-04-03T16:00:09.804Z,10.50
2023-04-03T16:02:37.819Z,10.50
2023-04-03T16:05:06.517Z,10.50
2023-04-03T16:07:34.724Z,10.40
2023-04-03T16:10:02.715Z,10.40
2023-04-03T16:12:30.857Z,10.40
2023-04-03T16:15:00.412Z,10.50
2023-04-03T16:17:29.241Z,10.50
2023-04-03T16:19:58.244Z,10.50
2023-04-03T16:22:28.041Z,10.60
2023-04-03T16:24:56.463Z,10.60
2023-04-03T16:27:28.451Z,10.50
2023-04-03T16:29:56.604Z,10.40
2023-04-03T16:32:28.553Z,10.30
2023-04-03T16:34:56.836Z,10.30
2023-04-03T16:37:25.397Z,10.30
2023-04-03T16:39:54.950Z,10.40
2023-04-03T16:42:23.204Z,10.50
2023-04-03T16:44:51.514Z,10.50
2023-04-03T16:47:20.851Z,10.60
2023-04-03T16:49:50.558Z,10.60
2023-04-03T16:52:18.658Z,10.70
2023-04-03T16:54:47.317Z,10.70
2023-04-03T16:57:15.491Z,10.50
2023-04-03T16:59:43.761Z,10.30
2023-04-03T17:02:11.903Z,10.20
2023-04-03T17:04:39.936Z,10.10
2023-04-03T17:07:09.322Z,10.00
2023-04-03T17:09:38.316Z,10.00
2023-04-03T17:12:06.715Z,9.90
2023-04-03T17:14:34.737Z,9.80
2023-04-03T17:17:02.905Z,9.80
2023-04-03T17:19:31.206Z,9.90
2023-04-03T17:21:59.894Z,9.90
2023-04-03T17:24:29.900Z,9.90
2023-04-03T17:26:58.016Z,10.00
2023-04-03T17:29:26.079Z,9.90
2023-04-03T17:31:54.088Z,9.90
2023-04-03T17:34:22.530Z,9.80
2023-04-03T17:36:51.291Z,9.70
2023-04-03T17:39:19.434Z,9.50
2023-04-03T17:41:49.747Z,9.50
2023-04-03T17:44:17.828Z,9.40
2023-04-03T17:46:45.968Z,9.30
2023-04-03T17:49:15.210Z,9.10
2023-04-03T17:51:43.764Z,9.10
2023-04-03T17:54:12.095Z,9.00
2023-04-03T17:56:43.598Z,8.90
2023-04-03T17:59:13.260Z,8.70
2023-04-03T18:01:41.573Z,8.70
2023-04-03T18:04:09.662Z,8.60
2023-04-03T18:06:41.568Z,8.50
2023-04-03T18:09:14.606Z,8.30
2023-04-03T18:11:43.469Z,8.20
2023-04-03T18:14:15.519Z,8.10
2023-04-03T18:16:43.639Z,8.00
2023-04-03T18:19:22.682Z,8.00
2023-04-03T18:21:52.398Z,7.80
2023-04-03T18:24:23.103Z,7.70
2023-04-03T18:26:56.328Z,7.60
2023-04-03T18:29:26.549Z,7.40
2023-04-03T18:31:56.476Z,7.30
2023-04-03T18:34:24.682Z,7.10
2023-04-03T18:36:53.435Z,7.10
2023-04-03T18:39:24.008Z,7.00
2023-04-03T18:41:53.629Z,6.80
2023-04-03T18:44:24.454Z,6.80
2023-04-03T18:46:57.109Z,6.60
2023-04-03T18:49:25.535Z,6.50
2023-04-03T18:51:53.583Z,6.40
2023-04-03T18:54:22.006Z,6.20
2023-04-03T18:56:50.134Z,6.10
2023-04-03T18:59:18.314Z,6.00
2023-04-03T19:01:47.340Z,5.90
2023-04-03T19:04:17.129Z,5.80
2023-04-03T19:06:45.746Z,5.70
2023-04-03T19:09:14.469Z,5.60
2023-04-03T19:11:42.597Z,5.50
2023-04-03T19:14:16.605Z,5.40
2023-04-03T19:16:46.318Z,5.30
2023-04-03T19:19:14.571Z,5.20
2023-04-03T19:21:44.051Z,5.10
2023-04-03T19:24:13.827Z,5.00
2023-04-03T19:26:42.750Z,4.90
2023-04-03T19:29:11.088Z,4.80
2023-04-03T19:31:40.080Z,4.80
2023-04-03T19:34:09.283Z,4.60
2023-04-03T19:36:38.706Z,4.60
2023-04-03T19:39:08.185Z,4.50
2023-04-03T19:41:38.167Z,4.50
2023-04-03T19:44:07.653Z,4.40
2023-04-03T19:46:37.767Z,4.30
2023-04-03T19:49:06.198Z,4.20
2023-04-03T19:51:34.550Z,4.10
2023-04-03T19:54:02.642Z,4.10
2023-04-03T19:56:32.983Z,4.00
2023-04-03T19:59:01.123Z,3.90
2023-04-03T20:01:31.095Z,3.90
2023-04-03T20:03:59.267Z,3.80
2023-04-03T20:06:27.304Z,3.80
2023-04-03T20:08:55.958Z,3.70
2023-04-03T20:11:24.816Z,3.70
2023-04-03T20:13:56.047Z,3.60
2023-04-03T20:16:25.862Z,3.60
2023-04-03T20:18:56.571Z,3.50
2023-04-03T20:21:30.033Z,3.50
2023-04-03T20:23:58.173Z,3.50
2023-04-03T20:26:28.653Z,3.50
2023-04-03T20:28:59.977Z,3.50
2023-04-03T20:31:29.748Z,3.50
2023-04-03T20:33:58.201Z,3.60
2023-04-03T20:36:28.477Z,3.60
2023-04-03T20:38:57.502Z,3.50
2023-04-03T20:41:25.833Z,3.50
2023-04-03T20:43:54.378Z,3.50
2023-04-03T20:46:34.846Z,3.60
2023-04-03T20:49:06.837Z,3.70
2023-04-03T20:51:35.142Z,3.70
2023-04-03T20:54:04.016Z,3.70
2023-04-03T20:56:33.124Z,3.70
2023-04-03T20:59:02.884Z,3.70
2023-04-03T21:01:33.483Z,3.80
2023-04-03T21:04:07.534Z,3.80
2023-04-03T21:07:13.136Z,3.70
2023-04-03T21:10:18.511Z,3.70
2023-04-03T21:13:24.422Z,3.70
2023-04-03T21:15:55.352Z,3.60
2023-04-03T21:18:51.033Z,3.60
2023-04-03T21:21:22.221Z,3.60
2023-04-03T21:23:51.388Z,3.60
2023-04-03T21:26:21.676Z,3.50
2023-04-03T21:28:52.567Z,3.50
2023-04-03T21:31:22.854Z,3.50
2023-04-03T21:33:52.948Z,3.50
2023-04-03T21:36:21.011Z,3.50
2023-04-03T21:38:49.938Z,3.50
2023-04-03T21:41:18.452Z,3.40
2023-04-03T21:43:47.926Z,3.40
2023-04-03T21:46:15.973Z,3.40
2023-04-03T21:48:47.002Z,3.40
2023-04-03T21:51:17.428Z,3.30
2023-04-03T21:53:46.760Z,3.30
2023-04-03T21:56:14.812Z,3.30
2023-04-03T21:58:42.827Z,3.30
2023-04-03T22:01:11.950Z,3.30
2023-04-03T22:03:40.518Z,3.20
2023-04-03T22:06:09.130Z,3.20
2023-04-03T22:08:38.672Z,3.10
2023-04-03T22:11:09.116Z,3.10
2023-04-03T22:13:38.136Z,3.00
2023-04-03T22:16:07.515Z,3.00
2023-04-03T22:18:36.080Z,2.90
2023-04-03T22:21:04.544Z,2.90
2023-04-03T22:23:33.054Z,2.90
2023-04-03T22:26:05.144Z,2.80
2023-04-03T22:28:35.822Z,2.80
2023-04-03T22:31:04.988Z,2.80
2023-04-03T22:33:32.933Z,2.70
2023-04-03T22:36:00.941Z,2.80
2023-04-03T22:38:29.184Z,2.70
2023-04-03T22:40:58.949Z,2.70
2023-04-03T22:43:29.400Z,2.70
2023-04-03T22:45:58.090Z,2.70
2023-04-03T22:48:26.136Z,2.60
2023-04-03T22:50:54.392Z,2.50
2023-04-03T22:53:22.702Z,2.50
2023-04-03T22:55:57.515Z,2.30
2023-04-03T22:58:27.010Z,2.30
2023-04-03T23:01:04.608Z,2.30
2023-04-03T23:03:32.597Z,2.20
2023-04-03T23:06:01.583Z,2.20
2023-04-03T23:08:30.505Z,2.10
2023-04-03T23:10:59.090Z,2.10
2023-04-03T23:13:27.452Z,2.00
2023-04-03T23:15:57.670Z,2.00
2023-04-03T23:18:26.680Z,1.90
2023-04-03T23:20:55.289Z,1.90
2023-04-03T23:23:23.907Z,1.80
2023-04-03T23:25:55.272Z,1.70
2023-04-03T23:28:23.703Z,1.70
2023-04-03T23:30:57.763Z,1.70
2023-04-03T23:33:27.231Z,1.60
2023-04-03T23:35:55.202Z,1.60
2023-04-03T23:38:23.321Z,1.50
2023-04-03T23:40:51.453Z,1.40
2023-04-03T23:43:19.572Z,1.40
2023-04-03T23:45:47.749Z,1.40
2023-04-03T23:48:16.242Z,1.30
2023-04-03T23:50:45.922Z,1.30
2023-04-03T23:53:13.916Z,1.20
2023-04-03T23:55:42.196Z,1.20
2023-04-03T23:58:10.741Z,1.20
